Toamasina, Madagascar
Current Conditions -  °F | °C
As of 12:00 AM on Sunday 26 Oct 2014 (Local Time) from FMMT Reporting Station
Rain Showers Rain Showers  
Wind Chill: 77°   Ceiling: 3300
Heat Index: 78°   Visibility: 6mi
Dew Point: 75°   Wind: 5mph
Humidity: 94%   Direction: 340°NNW
Pressure: 29.91"   Gusts: NA
Location:  18.15°S, 49.4°E
Report Text: FMMT 252100Z 34004KT 9999 VCSH SCT017TCU BKN033 25/24 Q1013
Loading
Personal Weather Stations






























Interactive Weather Map
Tropical Storm Tracking
New forecast layout! Learn more

10-Day Weather Forecast

Advertisements
Track Severe Weather on mobile